createdAt,value
2022-11-04T00:00:28.631Z,99537.31
2022-11-04T00:02:34.459Z,99531.97
2022-11-04T00:04:36.902Z,99526.63
2022-11-04T00:06:39.614Z,99533.75
2022-11-04T00:08:42.227Z,99529.06
2022-11-04T00:11:05.495Z,99528.22
2022-11-04T00:13:07.935Z,99526.75
2022-11-04T00:15:28.896Z,99523.31
2022-11-04T00:18:45.669Z,99515.41
2022-11-04T00:21:06.402Z,99512.47
2022-11-04T00:23:27.093Z,99511.47
2022-11-04T00:25:48.058Z,99510.75
2022-11-04T00:28:09.256Z,99519.38
2022-11-04T00:30:11.911Z,99504.41
2022-11-04T00:36:38.952Z,99503.69
2022-11-04T00:38:41.154Z,99496.34
2022-11-04T00:40:43.705Z,99502.69
2022-11-04T00:42:46.902Z,99503.50
2022-11-04T00:44:49.094Z,99499.13
2022-11-04T00:46:51.437Z,99494.50
2022-11-04T00:48:54.470Z,99499.88
2022-11-04T00:50:57.720Z,99492.81
2022-11-04T00:53:03.426Z,99497.13
2022-11-04T00:55:06.214Z,99495.31
2022-11-04T00:57:14.399Z,99491.06
2022-11-04T00:59:16.890Z,99483.69
2022-11-04T01:01:20.238Z,99476.50
2022-11-04T01:03:22.418Z,99482.53
2022-11-04T01:05:24.740Z,99481.69
2022-11-04T01:07:29.625Z,99472.69
2022-11-04T01:09:31.919Z,99473.50
2022-11-04T01:11:34.847Z,99473.78
2022-11-04T01:14:26.787Z,99468.31
2022-11-04T01:16:32.620Z,99461.81
2022-11-04T01:18:35.365Z,99461.94
2022-11-04T01:20:37.649Z,99454.19
2022-11-04T01:22:39.893Z,99459.69
2022-11-04T01:24:42.266Z,99448.78
2022-11-04T01:26:44.527Z,99453.31
2022-11-04T01:28:47.137Z,99446.13
2022-11-04T01:30:49.695Z,99440.84
2022-11-04T01:32:52.022Z,99442.69
2022-11-04T01:34:54.200Z,99441.94
2022-11-04T01:36:56.352Z,99440.94
2022-11-04T01:38:58.771Z,99432.09
2022-11-04T01:41:01.993Z,99417.56
2022-11-04T01:43:04.865Z,99419.38
2022-11-04T01:45:15.254Z,99414.97
2022-11-04T01:47:27.128Z,99407.69
2022-11-04T01:49:40.733Z,99402.00
2022-11-04T01:51:49.191Z,99394.56
2022-11-04T01:53:55.384Z,99399.13
2022-11-04T01:56:00.810Z,99394.75
2022-11-04T01:58:07.609Z,99387.66
2022-11-04T02:00:11.258Z,99382.09
2022-11-04T02:02:16.639Z,99379.28
2022-11-04T02:04:28.582Z,99388.34
2022-11-04T02:06:30.900Z,99389.94
2022-11-04T02:08:34.263Z,99394.44
2022-11-04T02:10:39.108Z,99392.25
2022-11-04T02:12:50.013Z,99386.00
2022-11-04T02:14:53.936Z,99378.25
2022-11-04T02:17:19.104Z,99364.00
2022-11-04T02:19:52.107Z,99359.44
2022-11-04T02:22:33.299Z,99341.66
2022-11-04T02:24:54.124Z,99347.75
2022-11-04T02:27:04.106Z,99343.31
2022-11-04T02:29:32.002Z,99344.66
2022-11-04T02:32:01.156Z,99331.47
2022-11-04T02:34:42.079Z,99336.78
2022-11-04T02:36:57.420Z,99330.53
2022-11-04T02:39:14.765Z,99335.22
2022-11-04T02:41:35.572Z,99338.75
2022-11-04T02:43:45.931Z,99341.75
2022-11-04T02:45:51.581Z,99335.47
2022-11-04T02:48:16.914Z,99336.41
2022-11-04T02:50:48.014Z,99331.03
2022-11-04T02:53:02.074Z,99332.47
2022-11-04T02:55:11.939Z,99323.47
2022-11-04T02:57:20.018Z,99318.78
2022-11-04T02:59:46.425Z,99324.47
2022-11-04T03:01:51.664Z,99321.97
2022-11-04T03:04:01.575Z,99324.47
2022-11-04T03:06:05.118Z,99317.47
2022-11-04T03:08:15.855Z,99318.56
2022-11-04T03:10:31.215Z,99319.56
2022-11-04T03:12:40.517Z,99320.31
2022-11-04T03:14:48.637Z,99312.06
2022-11-04T03:17:01.779Z,99312.91
2022-11-04T03:19:06.801Z,99305.91
2022-11-04T03:21:11.610Z,99307.50
2022-11-04T03:27:05.339Z,99300.34
2022-11-04T03:29:29.319Z,99301.03
2022-11-04T03:32:02.491Z,99299.13
2022-11-04T03:34:05.024Z,99300.66
2022-11-04T03:36:09.089Z,99291.78
2022-11-04T03:38:14.369Z,99297.78
2022-11-04T03:40:19.629Z,99299.38
2022-11-04T03:42:24.055Z,99293.06
2022-11-04T03:44:27.364Z,99284.34
2022-11-04T03:46:29.987Z,99285.94
2022-11-04T03:48:32.642Z,99278.63
2022-11-04T03:50:42.192Z,99283.91
2022-11-04T03:52:44.676Z,99280.38
2022-11-04T03:54:47.833Z,99272.59
2022-11-04T03:57:18.723Z,99283.88
2022-11-04T03:59:23.956Z,99278.53
2022-11-04T04:01:50.496Z,99281.38
2022-11-04T04:03:59.968Z,99274.69
2022-11-04T04:06:20.005Z,99280.97
2022-11-04T04:08:46.223Z,99283.44
2022-11-04T04:11:03.378Z,99280.50
2022-11-04T04:13:44.726Z,99284.72
2022-11-04T04:15:54.345Z,99281.03
2022-11-04T04:18:01.849Z,99280.06
2022-11-04T04:20:18.802Z,99275.66
2022-11-04T04:22:25.394Z,99275.50
2022-11-04T04:24:54.018Z,99275.50
2022-11-04T04:27:15.780Z,99267.28
2022-11-04T04:29:21.557Z,99264.84
2022-11-04T04:31:44.378Z,99263.00
2022-11-04T04:33:46.979Z,99272.09
2022-11-04T04:35:57.196Z,99274.63
2022-11-04T04:38:24.686Z,99269.97
2022-11-04T04:40:49.645Z,99270.88
2022-11-04T04:43:11.973Z,99269.25
2022-11-04T04:45:29.124Z,99265.03
2022-11-04T04:47:45.525Z,99264.16
2022-11-04T04:49:56.102Z,99263.06
2022-11-04T04:51:58.194Z,99264.75
2022-11-04T04:54:00.503Z,99268.53
2022-11-04T04:56:02.700Z,99256.81
2022-11-04T04:58:05.194Z,99258.44
2022-11-04T05:00:10.563Z,99252.78
2022-11-04T05:02:12.878Z,99244.84
2022-11-04T05:04:15.304Z,99243.97
2022-11-04T05:06:17.861Z,99237.44
2022-11-04T05:08:19.927Z,99236.03
2022-11-04T05:10:22.347Z,99241.28
2022-11-04T05:12:26.023Z,99239.19
2022-11-04T05:14:29.140Z,99241.81
2022-11-04T05:16:31.269Z,99237.25
2022-11-04T05:22:28.713Z,99240.94
2022-11-04T05:24:30.989Z,99237.97
2022-11-04T05:26:33.139Z,99244.16
2022-11-04T05:28:35.713Z,99245.38
2022-11-04T05:30:37.885Z,99241.75
2022-11-04T05:32:40.026Z,99239.63
2022-11-04T05:34:42.501Z,99240.53
2022-11-04T05:36:45.068Z,99248.44
2022-11-04T05:38:51.816Z,99244.81
2022-11-04T05:40:53.982Z,99244.00
2022-11-04T05:42:58.409Z,99243.78
2022-11-04T05:45:00.305Z,99245.56
2022-11-04T05:47:02.283Z,99243.88
2022-11-04T05:49:05.287Z,99238.72
2022-11-04T05:51:12.978Z,99238.63
2022-11-04T05:53:15.225Z,99241.09
2022-11-04T05:55:17.307Z,99233.03
2022-11-04T05:57:19.175Z,99233.66
2022-11-04T05:59:21.082Z,99241.25
2022-11-04T06:01:27.269Z,99250.19
2022-11-04T06:03:29.990Z,99248.25
2022-11-04T06:05:32.258Z,99235.44
2022-11-04T06:07:34.220Z,99245.03
2022-11-04T06:09:41.854Z,99247.63
2022-11-04T06:11:43.881Z,99245.72
2022-11-04T06:13:46.074Z,99248.09
2022-11-04T06:15:48.017Z,99250.78
2022-11-04T06:17:49.976Z,99250.56
2022-11-04T06:19:51.932Z,99253.16
2022-11-04T06:21:53.912Z,99249.34
2022-11-04T06:23:57.701Z,99248.38
2022-11-04T06:25:59.574Z,99253.06
2022-11-04T06:28:04.451Z,99249.81
2022-11-04T06:30:07.141Z,99246.09
2022-11-04T06:32:10.898Z,99250.16
2022-11-04T06:34:12.786Z,99249.78
2022-11-04T06:36:16.336Z,99249.50
2022-11-04T06:42:27.835Z,99248.72
2022-11-04T06:44:30.013Z,99256.69
2022-11-04T06:46:42.671Z,99245.63
2022-11-04T06:48:45.148Z,99241.63
2022-11-04T06:50:47.373Z,99241.25
2022-11-04T06:52:49.422Z,99247.44
2022-11-04T06:54:51.566Z,99241.88
2022-11-04T06:56:53.437Z,99246.09
2022-11-04T06:58:56.182Z,99243.13
2022-11-04T07:00:58.381Z,99237.63
2022-11-04T07:03:00.846Z,99232.56
2022-11-04T07:05:03.166Z,99232.28
2022-11-04T07:07:05.648Z,99231.47
2022-11-04T07:09:07.626Z,99226.13
2022-11-04T07:11:09.940Z,99222.34
2022-11-04T07:13:11.961Z,99225.41
2022-11-04T07:15:14.406Z,99231.41
2022-11-04T07:17:19.308Z,99220.19
2022-11-04T07:19:21.248Z,99226.38
2022-11-04T07:21:25.226Z,99219.69
2022-11-04T07:23:27.329Z,99216.81
2022-11-04T07:25:32.995Z,99222.03
2022-11-04T07:27:35.005Z,99219.69
2022-11-04T07:29:37.339Z,99219.28
2022-11-04T07:31:43.678Z,99218.94
2022-11-04T07:33:50.138Z,99212.22
2022-11-04T07:35:57.956Z,99209.06
2022-11-04T07:38:00.200Z,99209.97
2022-11-04T07:40:02.178Z,99211.50
2022-11-04T07:42:04.231Z,99208.72
2022-11-04T07:44:06.372Z,99203.22
2022-11-04T07:46:12.089Z,99199.56
2022-11-04T07:48:14.399Z,99196.78
2022-11-04T07:50:19.133Z,99202.09
2022-11-04T07:52:21.320Z,99197.66
2022-11-04T07:54:23.087Z,99192.69
2022-11-04T07:56:25.817Z,99206.63
2022-11-04T07:58:29.485Z,99194.97
2022-11-04T08:00:31.631Z,99193.72
2022-11-04T08:02:35.358Z,99187.28
2022-11-04T08:04:38.075Z,99186.41
2022-11-04T08:06:42.343Z,99184.97
2022-11-04T08:08:45.006Z,99187.50
2022-11-04T08:10:53.169Z,99185.50
2022-11-04T08:12:58.270Z,99184.16
2022-11-04T08:15:00.907Z,99178.13
2022-11-04T08:17:03.007Z,99180.38
2022-11-04T08:19:05.136Z,99185.31
2022-11-04T08:21:07.907Z,99171.31
2022-11-04T08:23:12.428Z,99174.16
2022-11-04T08:25:14.696Z,99175.22
2022-11-04T08:27:17.008Z,99173.97
2022-11-04T08:29:19.298Z,99175.63
2022-11-04T08:31:26.989Z,99174.44
2022-11-04T08:33:31.161Z,99184.38
2022-11-04T08:36:02.634Z,99167.38
2022-11-04T08:38:04.878Z,99168.50
2022-11-04T08:40:07.840Z,99164.22
2022-11-04T08:42:10.040Z,99172.84
2022-11-04T08:48:06.133Z,99160.19
2022-11-04T08:50:08.336Z,99151.88
2022-11-04T08:52:10.271Z,99156.00
2022-11-04T08:54:12.149Z,99153.84
2022-11-04T08:56:29.059Z,99148.13
2022-11-04T08:58:30.902Z,99149.53
2022-11-04T09:00:33.195Z,99147.50
2022-11-04T09:02:35.120Z,99137.00
2022-11-04T09:04:37.256Z,99134.84
2022-11-04T09:06:42.731Z,99130.59
2022-11-04T09:08:44.877Z,99127.47
2022-11-04T09:10:48.190Z,99134.53
2022-11-04T09:12:50.250Z,99134.97
2022-11-04T09:14:52.200Z,99133.81
2022-11-04T09:16:56.718Z,99126.84
2022-11-04T09:18:59.618Z,99130.56
2022-11-04T09:21:06.847Z,99125.66
2022-11-04T09:23:09.906Z,99131.09
2022-11-04T09:25:12.135Z,99128.91
2022-11-04T09:27:14.971Z,99111.69
2022-11-04T09:29:17.312Z,99103.00
2022-11-04T09:31:20.012Z,99106.13
2022-11-04T09:33:21.950Z,99100.81
2022-11-04T09:35:24.116Z,99097.38
2022-11-04T09:37:25.988Z,99090.59
2022-11-04T09:39:30.541Z,99084.19
2022-11-04T09:41:57.468Z,99080.59
2022-11-04T09:44:11.747Z,99084.47
2022-11-04T09:46:14.907Z,99083.19
2022-11-04T09:48:30.212Z,99078.72
2022-11-04T09:50:49.544Z,99077.75
2022-11-04T09:52:59.073Z,99076.41
2022-11-04T09:55:15.818Z,99079.00
2022-11-04T09:57:19.448Z,99070.84
2022-11-04T09:59:28.979Z,99067.91
2022-11-04T10:01:52.536Z,99069.94
2022-11-04T10:04:25.270Z,99063.41
2022-11-04T10:06:55.269Z,99061.34
2022-11-04T10:09:30.260Z,99057.31
2022-11-04T10:11:32.315Z,99050.63
2022-11-04T10:14:15.825Z,99045.31
2022-11-04T10:16:42.693Z,99040.25
2022-11-04T10:19:16.554Z,99043.16
2022-11-04T10:21:21.533Z,99037.97
2022-11-04T10:23:29.128Z,99034.38
2022-11-04T10:25:43.204Z,99029.94
2022-11-04T10:27:47.379Z,99021.56
2022-11-04T10:29:55.303Z,99019.34
2022-11-04T10:32:00.804Z,99018.09
2022-11-04T10:34:23.920Z,99022.41
2022-11-04T10:36:27.410Z,99019.34
2022-11-04T10:38:41.837Z,99026.28
2022-11-04T10:40:48.460Z,99019.84
2022-11-04T10:42:51.951Z,99012.69
2022-11-04T10:44:54.025Z,99012.44
2022-11-04T10:47:03.451Z,99019.38
2022-11-04T10:49:29.815Z,99012.84
2022-11-04T10:54:54.154Z,99000.94
2022-11-04T10:56:57.261Z,99000.84
2022-11-04T10:59:20.006Z,98997.00
2022-11-04T11:01:26.202Z,98990.13
2022-11-04T11:03:33.745Z,98986.13
2022-11-04T11:05:35.871Z,98990.47
2022-11-04T11:07:38.381Z,98981.19
2022-11-04T11:09:54.012Z,98987.25
2022-11-04T11:12:36.328Z,98983.06
2022-11-04T11:14:28.869Z,98976.84
2022-11-04T11:16:32.067Z,98971.88
2022-11-04T11:18:34.258Z,98974.34
2022-11-04T11:21:39.299Z,98963.44
2022-11-04T11:23:54.752Z,98965.31
2022-11-04T11:25:56.753Z,98962.81
2022-11-04T11:28:01.693Z,98959.59
2022-11-04T11:30:04.211Z,98960.06
2022-11-04T11:32:22.920Z,98958.69
2022-11-04T11:34:34.898Z,98963.59
2022-11-04T11:36:38.932Z,98960.38
2022-11-04T11:39:28.187Z,98951.94
2022-11-04T11:41:31.872Z,98953.16
2022-11-04T11:43:36.902Z,98953.91
2022-11-04T11:45:40.181Z,98957.00
2022-11-04T11:47:42.551Z,98961.31
2022-11-04T11:49:44.890Z,98950.69
2022-11-04T11:51:47.021Z,98952.59
2022-11-04T11:54:13.462Z,98945.16
2022-11-04T11:56:45.841Z,98951.69
2022-11-04T12:02:07.456Z,98936.97
2022-11-04T12:09:16.928Z,98940.63
2022-11-04T12:11:49.097Z,98933.19
2022-11-04T12:13:57.204Z,98930.19
2022-11-04T12:16:31.554Z,98932.66
2022-11-04T12:19:01.223Z,98926.94
2022-11-04T12:21:21.588Z,98918.75
2022-11-04T12:23:55.834Z,98923.94
2022-11-04T12:26:02.114Z,98912.63
2022-11-04T12:28:10.086Z,98906.75
2022-11-04T12:30:24.029Z,98916.72
2022-11-04T12:32:30.375Z,98893.38
2022-11-04T12:34:54.327Z,98899.53
2022-11-04T12:37:04.570Z,98903.31
2022-11-04T12:39:28.774Z,98898.84
2022-11-04T12:42:06.734Z,98894.44
2022-11-04T12:44:07.763Z,98899.31
2022-11-04T12:46:16.124Z,98904.38
2022-11-04T12:48:55.906Z,98892.19
2022-11-04T12:51:08.581Z,98905.56
2022-11-04T12:53:16.329Z,98891.28
2022-11-04T12:55:30.517Z,98901.78
2022-11-04T12:57:46.566Z,98890.00
2022-11-04T13:00:10.526Z,98896.59
2022-11-04T13:02:38.270Z,98891.28
2022-11-04T13:04:47.713Z,98893.13
2022-11-04T13:07:28.498Z,98890.56
2022-11-04T13:09:38.120Z,98894.03
2022-11-04T13:11:45.915Z,98893.13
2022-11-04T13:13:57.489Z,98889.72
2022-11-04T13:16:09.888Z,98892.56
2022-11-04T13:18:17.735Z,98886.69
2022-11-04T13:20:36.548Z,98890.28
2022-11-04T13:22:39.642Z,98884.53
2022-11-04T13:25:00.527Z,98887.13
2022-11-04T13:27:15.971Z,98883.41
2022-11-04T13:29:21.615Z,98877.41
2022-11-04T13:31:33.205Z,98877.41
2022-11-04T13:33:54.200Z,98870.06
2022-11-04T13:35:56.107Z,98875.81
2022-11-04T13:38:16.388Z,98872.22
2022-11-04T13:40:27.567Z,98873.06
2022-11-04T13:43:21.645Z,98868.63
2022-11-04T13:45:23.873Z,98874.38
2022-11-04T13:47:34.135Z,98872.94
2022-11-04T13:49:37.629Z,98871.63
2022-11-04T13:51:43.383Z,98869.34
2022-11-04T13:53:51.765Z,98873.06
2022-11-04T13:56:09.478Z,98871.34
2022-11-04T13:58:28.109Z,98867.34
2022-11-04T14:00:32.387Z,98868.47
2022-11-04T14:02:41.350Z,98862.28
2022-11-04T14:04:44.613Z,98864.16
2022-11-04T14:07:02.105Z,98859.97
2022-11-04T14:09:29.312Z,98858.38
2022-11-04T14:11:34.833Z,98859.53
2022-11-04T14:13:46.166Z,98864.41
2022-11-04T14:16:09.963Z,98853.91
2022-11-04T14:18:30.548Z,98856.16
2022-11-04T14:24:16.605Z,98852.38
2022-11-04T14:26:23.059Z,98847.25
2022-11-04T14:28:30.268Z,98847.72
2022-11-04T14:30:50.809Z,98843.81
2022-11-04T14:32:58.839Z,98843.94
2022-11-04T14:35:04.595Z,98844.59
2022-11-04T14:37:15.466Z,98842.09
2022-11-04T14:39:24.566Z,98838.19
2022-11-04T14:41:29.594Z,98848.50
2022-11-04T14:43:35.342Z,98841.47
2022-11-04T14:45:40.221Z,98842.41
2022-11-04T14:47:43.563Z,98838.31
2022-11-04T14:49:52.875Z,98830.66
2022-11-04T14:51:55.463Z,98836.78
2022-11-04T14:54:08.729Z,98834.72
2022-11-04T14:56:23.917Z,98835.91
2022-11-04T14:58:28.392Z,98838.91
2022-11-04T15:00:34.290Z,98836.22
2022-11-04T15:02:36.780Z,98838.47
2022-11-04T15:04:45.509Z,98838.84
2022-11-04T15:07:04.251Z,98831.59
2022-11-04T15:09:20.620Z,98835.97
2022-11-04T15:11:58.328Z,98830.91
2022-11-04T15:14:00.938Z,98826.69
2022-11-04T15:16:11.168Z,98831.03
2022-11-04T15:18:24.143Z,98834.28
2022-11-04T15:20:31.710Z,98825.38
2022-11-04T15:22:34.281Z,98834.91
2022-11-04T15:24:37.749Z,98828.97
2022-11-04T15:26:40.905Z,98828.59
2022-11-04T15:28:48.668Z,98836.66
2022-11-04T15:31:21.058Z,98835.66
2022-11-04T15:33:25.437Z,98847.53
2022-11-04T15:35:31.513Z,98844.94
2022-11-04T15:37:46.648Z,98844.59
2022-11-04T15:39:53.161Z,98840.13
2022-11-04T15:42:17.965Z,98838.78
2022-11-04T15:44:24.375Z,98834.81
2022-11-04T15:46:29.598Z,98837.63
2022-11-04T15:48:34.993Z,98836.03
2022-11-04T15:50:38.996Z,98831.19
2022-11-04T15:52:50.900Z,98832.16
2022-11-04T15:54:59.850Z,98830.31
2022-11-04T15:57:12.991Z,98820.66
2022-11-04T15:59:19.972Z,98824.31
2022-11-04T16:01:23.039Z,98819.97
2022-11-04T16:03:26.217Z,98814.41
2022-11-04T16:05:40.121Z,98814.31
2022-11-04T16:07:44.274Z,98817.53
2022-11-04T16:09:49.735Z,98820.22
2022-11-04T16:12:27.063Z,98825.59
2022-11-04T16:14:30.270Z,98824.16
2022-11-04T16:16:32.832Z,98820.03
2022-11-04T16:18:44.902Z,98820.81
2022-11-04T16:20:48.848Z,98829.59
2022-11-04T16:23:00.641Z,98815.44
2022-11-04T16:25:05.825Z,98818.06
2022-11-04T16:27:14.206Z,98823.34
2022-11-04T16:29:32.581Z,98816.44
2022-11-04T16:31:36.634Z,98815.00
2022-11-04T16:33:38.853Z,98813.75
2022-11-04T16:35:43.518Z,98815.72
2022-11-04T16:37:46.368Z,98819.19
2022-11-04T16:39:50.183Z,98819.44
2022-11-04T16:41:52.268Z,98823.16
2022-11-04T16:43:55.799Z,98832.25
2022-11-04T16:45:57.915Z,98834.88
2022-11-04T16:48:03.351Z,98836.53
2022-11-04T16:50:14.418Z,98834.50
2022-11-04T16:52:23.248Z,98839.38
2022-11-04T16:54:25.672Z,98837.53
2022-11-04T16:56:27.772Z,98832.00
2022-11-04T16:58:30.190Z,98832.78
2022-11-04T17:00:36.142Z,98832.44
2022-11-04T17:02:39.979Z,98832.53
2022-11-04T17:04:42.097Z,98826.25
2022-11-04T17:06:44.457Z,98827.22
2022-11-04T17:08:47.264Z,98824.50
2022-11-04T17:10:49.533Z,98829.53
2022-11-04T17:12:51.999Z,98826.53
2022-11-04T17:14:54.561Z,98819.06
2022-11-04T17:16:59.358Z,98829.81
2022-11-04T17:19:01.573Z,98823.63
2022-11-04T17:21:08.313Z,98829.47
2022-11-04T17:23:13.191Z,98815.81
2022-11-04T17:25:23.526Z,98810.41
2022-11-04T17:27:27.483Z,98805.59
2022-11-04T17:29:30.465Z,98811.16
2022-11-04T17:31:33.042Z,98817.22
2022-11-04T17:33:35.120Z,98812.25
2022-11-04T17:35:42.002Z,98819.72
2022-11-04T17:37:44.470Z,98814.81
2022-11-04T17:39:49.562Z,98821.34
2022-11-04T17:42:10.186Z,98819.38
2022-11-04T17:44:12.547Z,98819.63
2022-11-04T17:46:34.478Z,98802.72
2022-11-04T17:48:36.818Z,98808.69
2022-11-04T17:50:39.872Z,98806.06
2022-11-04T17:52:42.509Z,98808.78
2022-11-04T17:54:44.747Z,98808.69
2022-11-04T17:56:47.525Z,98803.13
2022-11-04T17:58:50.626Z,98813.88
2022-11-04T18:00:54.538Z,98814.28
2022-11-04T18:02:57.682Z,98810.09
2022-11-04T18:05:01.867Z,98814.28
2022-11-04T18:07:04.372Z,98816.16
2022-11-04T18:09:07.041Z,98810.63
2022-11-04T18:11:11.877Z,98804.34
2022-11-04T18:13:13.960Z,98803.69
2022-11-04T18:15:19.298Z,98807.63
2022-11-04T18:17:24.806Z,98804.25
2022-11-04T18:20:29.648Z,98805.47
2022-11-04T18:22:31.919Z,98809.03
2022-11-04T18:24:34.668Z,98806.66
2022-11-04T18:26:36.991Z,98814.00
2022-11-04T18:28:39.356Z,98818.03
2022-11-04T18:30:41.665Z,98815.41
2022-11-04T18:32:43.854Z,98815.78
2022-11-04T18:34:46.061Z,98809.69
2022-11-04T18:36:49.159Z,98811.22
2022-11-04T18:38:51.775Z,98822.03
2022-11-04T18:40:54.148Z,98810.00
2022-11-04T18:42:56.512Z,98813.59
2022-11-04T18:44:58.651Z,98807.72
2022-11-04T18:47:01.209Z,98813.03
2022-11-04T18:49:03.479Z,98809.25
2022-11-04T18:51:09.699Z,98808.34
2022-11-04T18:53:14.402Z,98814.53
2022-11-04T18:55:16.432Z,98812.03
2022-11-04T18:57:18.512Z,98817.22
2022-11-04T18:59:21.011Z,98811.38
2022-11-04T19:01:24.442Z,98814.81
2022-11-04T19:03:26.609Z,98813.53
2022-11-04T19:05:28.564Z,98814.06
2022-11-04T19:07:31.028Z,98815.78
2022-11-04T19:09:46.572Z,98820.00
2022-11-04T19:12:09.637Z,98822.59
2022-11-04T19:14:16.112Z,98828.56
2022-11-04T19:16:18.322Z,98820.69
2022-11-04T19:18:20.567Z,98823.16
2022-11-04T19:20:23.775Z,98823.59
2022-11-04T19:22:25.914Z,98812.97
2022-11-04T19:24:28.693Z,98815.56
2022-11-04T19:26:33.715Z,98810.25
2022-11-04T19:28:48.141Z,98811.91
2022-11-04T19:31:03.313Z,98811.56
2022-11-04T19:33:05.515Z,98812.75
2022-11-04T19:35:07.826Z,98806.47
2022-11-04T19:37:10.956Z,98805.94
2022-11-04T19:39:13.266Z,98802.56
2022-11-04T19:41:35.598Z,98801.47
2022-11-04T19:43:37.503Z,98805.78
2022-11-04T19:45:42.447Z,98802.84
2022-11-04T19:47:47.055Z,98801.91
2022-11-04T19:49:49.168Z,98796.81
2022-11-04T19:51:51.822Z,98801.91
2022-11-04T19:53:54.814Z,98805.56
2022-11-04T19:55:58.793Z,98808.19
2022-11-04T19:58:02.059Z,98807.72
2022-11-04T20:00:04.872Z,98807.38
2022-11-04T20:02:15.401Z,98805.31
2022-11-04T20:04:18.555Z,98803.69
2022-11-04T20:06:21.548Z,98816.91
2022-11-04T20:08:23.775Z,98807.78
2022-11-04T20:10:25.752Z,98805.66
2022-11-04T20:12:46.258Z,98809.97
2022-11-04T20:14:48.474Z,98811.69
2022-11-04T20:16:50.484Z,98812.56
2022-11-04T20:18:57.082Z,98813.88
2022-11-04T20:20:59.062Z,98813.03
2022-11-04T20:23:01.696Z,98814.88
2022-11-04T20:25:04.810Z,98806.00
2022-11-04T20:27:06.950Z,98814.13
2022-11-04T20:29:10.280Z,98805.88
2022-11-04T20:31:18.160Z,98803.69
2022-11-04T20:33:20.187Z,98810.09
2022-11-04T20:35:23.077Z,98809.97
2022-11-04T20:37:26.217Z,98810.59
2022-11-04T20:39:28.130Z,98817.25
2022-11-04T20:41:30.444Z,98819.50
2022-11-04T20:43:34.655Z,98817.22
2022-11-04T20:45:39.386Z,98818.94
2022-11-04T20:47:42.418Z,98818.94
2022-11-04T20:49:45.203Z,98825.22
2022-11-04T20:51:54.634Z,98820.31
2022-11-04T20:54:00.790Z,98815.75
2022-11-04T20:56:07.707Z,98810.69
2022-11-04T20:58:10.055Z,98818.38
2022-11-04T21:00:13.191Z,98818.16
2022-11-04T21:02:15.257Z,98819.00
2022-11-04T21:04:21.653Z,98822.63
2022-11-04T21:06:23.703Z,98812.63
2022-11-04T21:08:26.578Z,98817.81
2022-11-04T21:10:28.550Z,98817.47
2022-11-04T21:12:30.658Z,98820.28
2022-11-04T21:14:35.330Z,98823.00
2022-11-04T21:16:37.509Z,98810.66
2022-11-04T21:18:40.278Z,98812.63
2022-11-04T21:20:43.427Z,98814.84
2022-11-04T21:22:45.629Z,98823.00
2022-11-04T21:24:47.684Z,98807.19
2022-11-04T21:26:53.289Z,98811.75
2022-11-04T21:29:01.702Z,98807.44
2022-11-04T21:31:06.958Z,98801.53
2022-11-04T21:33:09.338Z,98802.28
2022-11-04T21:35:11.315Z,98801.13
2022-11-04T21:37:13.700Z,98797.44
2022-11-04T21:39:17.856Z,98803.09
2022-11-04T21:41:26.051Z,98804.16
2022-11-04T21:43:28.344Z,98805.25
2022-11-04T21:45:32.829Z,98805.25
2022-11-04T21:47:34.858Z,98805.38
2022-11-04T21:49:36.729Z,98807.31
2022-11-04T21:51:38.705Z,98803.84
2022-11-04T21:53:41.183Z,98792.16
2022-11-04T21:55:43.870Z,98798.09
2022-11-04T21:57:46.052Z,98798.75
2022-11-04T21:59:48.075Z,98810.44
2022-11-04T22:01:50.248Z,98802.41
2022-11-04T22:03:54.754Z,98801.13
2022-11-04T22:06:02.181Z,98807.31
2022-11-04T22:08:19.978Z,98799.59
2022-11-04T22:10:22.935Z,98801.81
2022-11-04T22:12:24.951Z,98797.13
2022-11-04T22:14:30.720Z,98804.03
2022-11-04T22:16:37.427Z,98801.56
2022-11-04T22:18:40.190Z,98804.28
2022-11-04T22:20:42.762Z,98798.00
2022-11-04T22:22:44.900Z,98797.84
2022-11-04T22:25:03.195Z,98796.47
2022-11-04T22:27:06.850Z,98789.34
2022-11-04T22:29:09.918Z,98790.53
2022-11-04T22:31:16.812Z,98785.09
2022-11-04T22:33:21.104Z,98785.75
2022-11-04T22:35:25.582Z,98780.78
2022-11-04T22:37:27.634Z,98778.94
2022-11-04T22:39:32.655Z,98775.25
2022-11-04T22:41:35.727Z,98781.63
2022-11-04T22:43:38.032Z,98770.69
2022-11-04T22:45:40.107Z,98775.88
2022-11-04T22:47:42.298Z,98773.69
2022-11-04T22:49:44.417Z,98779.59
2022-11-04T22:51:46.850Z,98780.78
2022-11-04T22:53:57.695Z,98778.53
2022-11-04T22:56:01.953Z,98776.69
2022-11-04T22:58:04.170Z,98769.06
2022-11-04T23:00:07.650Z,98767.47
2022-11-04T23:02:09.903Z,98762.78
2022-11-04T23:04:14.255Z,98765.25
2022-11-04T23:06:16.461Z,98760.69
2022-11-04T23:08:18.512Z,98757.03
2022-11-04T23:10:39.189Z,98760.63
2022-11-04T23:13:04.204Z,98758.72
2022-11-04T23:15:25.427Z,98751.34
2022-11-04T23:17:46.019Z,98753.19
2022-11-04T23:19:50.720Z,98748.41
2022-11-04T23:22:11.457Z,98747.00
2022-11-04T23:24:32.310Z,98758.06
2022-11-04T23:26:34.487Z,98759.56
2022-11-04T23:28:58.220Z,98757.94
2022-11-04T23:31:00.393Z,98758.91
2022-11-04T23:33:05.229Z,98758.91
2022-11-04T23:35:27.838Z,98767.59
2022-11-04T23:37:30.272Z,98773.28
2022-11-04T23:39:32.384Z,98769.47
2022-11-04T23:41:53.359Z,98772.34
2022-11-04T23:43:55.467Z,98778.56
2022-11-04T23:46:16.225Z,98778.47
2022-11-04T23:48:37.190Z,98778.47
2022-11-04T23:50:57.989Z,98771.50
2022-11-04T23:53:20.311Z,98777.78
2022-11-04T23:55:43.866Z,98769.47
2022-11-04T23:58:04.655Z,98770.72
